RJAA/NRT METAR and TAF weather

Enter ICAO airport designator
Station Type Date Time Source
RJAA METAR 2020/07/04 01:30 UTC NOAA

RJAA 040130Z 22017G28KT 180V250 9999 FEW020 BKN150 27/22 Q1005 WS R16R NOSIG RMK 2CU020 7AC150 A2969


Station Type Date Time Source
RJAA Decoded METAR 2020/07/04 01:30 UTC NOAA

New Tokyo Inter-National Airport, Japan (RJAA) 35-46N 140-23E 44M
Jul 03, 2020 - 09:30 PM EDT / 2020.07.04 0130 UTC
Wind: from the SW (220 degrees) at 20 MPH (17 KT) gusting to 32 MPH (28 KT) (direction variable):0
Visibility: greater than 7 mile(s):0
Sky conditions: mostly cloudy
Temperature: 80 F (27 C)
Dew Point: 71 F (22 C)
Relative Humidity: 74%
Pressure (altimeter): 29.68 in. Hg (1005 hPa)
ob: RJAA 040130Z 22017G28KT 180V250 9999 FEW020 BKN150 27/22 Q1005 WS R16R NOSIG RMK 2CU020 7AC150 A2969
cycle: 1

Station Type Date Time Source
RJAA TAF 2020/07/03 21:55 UTC NOAA

TAF
AMD RJAA 032145Z 0321/0500 18008KT 9999 FEW010 BKN025
TEMPO 0321/0400 4000 SHRA BR
BECMG 0322/0400 22018G28KT
TEMPO 0403/0409 22024G38KT

Example: see airport list